sensor_id;sensor_type;location;lat;lon;timestamp;P1;durP1;ratioP1;P2;durP2;ratioP2
83306;SDS011;73223;48.584;13.460;2024-01-15T00:01:51;22.50;;;9.30;;
83306;SDS011;73223;48.584;13.460;2024-01-15T00:04:17;29.88;;;9.98;;
83306;SDS011;73223;48.584;13.460;2024-01-15T00:06:42;28.45;;;10.13;;
83306;SDS011;73223;48.584;13.460;2024-01-15T00:09:07;26.67;;;9.45;;
83306;SDS011;73223;48.584;13.460;2024-01-15T00:11:33;27.17;;;9.50;;
83306;SDS011;73223;48.584;13.460;2024-01-15T00:13:58;33.78;;;10.98;;
83306;SDS011;73223;48.584;13.460;2024-01-15T00:16:24;31.02;;;9.57;;
83306;SDS011;73223;48.584;13.460;2024-01-15T00:18:49;33.30;;;10.82;;
83306;SDS011;73223;48.584;13.460;2024-01-15T00:21:14;28.75;;;9.35;;
83306;SDS011;73223;48.584;13.460;2024-01-15T00:23:43;29.23;;;10.63;;
83306;SDS011;73223;48.584;13.460;2024-01-15T00:26:11;30.70;;;9.82;;
83306;SDS011;73223;48.584;13.460;2024-01-15T00:28:37;30.90;;;11.00;;
83306;SDS011;73223;48.584;13.460;2024-01-15T00:31:03;31.60;;;11.20;;
83306;SDS011;73223;48.584;13.460;2024-01-15T00:33:29;32.10;;;10.77;;
83306;SDS011;73223;48.584;13.460;2024-01-15T00:35:54;29.30;;;11.18;;
83306;SDS011;73223;48.584;13.460;2024-01-15T00:38:19;27.70;;;10.40;;
83306;SDS011;73223;48.584;13.460;2024-01-15T00:40:45;29.60;;;10.45;;
83306;SDS011;73223;48.584;13.460;2024-01-15T00:43:10;27.83;;;10.80;;
83306;SDS011;73223;48.584;13.460;2024-01-15T00:45:35;30.63;;;10.63;;
83306;SDS011;73223;48.584;13.460;2024-01-15T00:48:01;33.50;;;11.73;;
83306;SDS011;73223;48.584;13.460;2024-01-15T00:50:26;26.15;;;9.70;;
83306;SDS011;73223;48.584;13.460;2024-01-15T00:52:51;31.90;;;11.27;;
83306;SDS011;73223;48.584;13.460;2024-01-15T00:55:17;31.07;;;10.63;;
83306;SDS011;73223;48.584;13.460;2024-01-15T00:57:42;29.43;;;12.53;;
83306;SDS011;73223;48.584;13.460;2024-01-15T01:00:07;33.78;;;12.02;;
83306;SDS011;73223;48.584;13.460;2024-01-15T01:02:34;30.55;;;11.43;;
83306;SDS011;73223;48.584;13.460;2024-01-15T01:04:59;31.85;;;11.50;;
83306;SDS011;73223;48.584;13.460;2024-01-15T01:07:24;24.67;;;10.07;;
83306;SDS011;73223;48.584;13.460;2024-01-15T01:09:50;33.05;;;11.13;;
83306;SDS011;73223;48.584;13.460;2024-01-15T01:12:16;35.72;;;10.88;;
83306;SDS011;73223;48.584;13.460;2024-01-15T01:14:41;32.63;;;11.45;;
83306;SDS011;73223;48.584;13.460;2024-01-15T01:17:07;24.52;;;9.85;;
83306;SDS011;73223;48.584;13.460;2024-01-15T01:19:32;29.65;;;9.48;;
83306;SDS011;73223;48.584;13.460;2024-01-15T01:21:57;27.87;;;9.90;;
83306;SDS011;73223;48.584;13.460;2024-01-15T01:24:23;33.22;;;11.00;;
83306;SDS011;73223;48.584;13.460;2024-01-15T01:26:48;28.50;;;10.57;;
83306;SDS011;73223;48.584;13.460;2024-01-15T01:29:14;23.75;;;8.35;;
83306;SDS011;73223;48.584;13.460;2024-01-15T01:31:45;27.67;;;10.23;;
83306;SDS011;73223;48.584;13.460;2024-01-15T01:34:13;29.55;;;10.00;;
83306;SDS011;73223;48.584;13.460;2024-01-15T01:36:40;21.98;;;10.93;;
83306;SDS011;73223;48.584;13.460;2024-01-15T01:39:05;27.77;;;10.02;;
83306;SDS011;73223;48.584;13.460;2024-01-15T01:41:30;27.50;;;9.97;;
83306;SDS011;73223;48.584;13.460;2024-01-15T01:43:56;23.95;;;10.38;;
83306;SDS011;73223;48.584;13.460;2024-01-15T01:46:22;26.70;;;9.52;;
83306;SDS011;73223;48.584;13.460;2024-01-15T01:48:47;31.25;;;10.93;;
83306;SDS011;73223;48.584;13.460;2024-01-15T01:51:13;26.92;;;11.35;;
83306;SDS011;73223;48.584;13.460;2024-01-15T01:53:38;24.95;;;9.85;;
83306;SDS011;73223;48.584;13.460;2024-01-15T01:56:04;21.45;;;6.55;;
83306;SDS011;73223;48.584;13.460;2024-01-15T01:58:30;31.90;;;11.23;;
83306;SDS011;73223;48.584;13.460;2024-01-15T02:00:57;33.35;;;12.23;;
83306;SDS011;73223;48.584;13.460;2024-01-15T02:03:24;24.55;;;9.68;;
83306;SDS011;73223;48.584;13.460;2024-01-15T02:05:50;27.17;;;9.63;;
83306;SDS011;73223;48.584;13.460;2024-01-15T02:08:17;26.95;;;12.25;;
83306;SDS011;73223;48.584;13.460;2024-01-15T02:10:43;22.67;;;10.10;;
83306;SDS011;73223;48.584;13.460;2024-01-15T02:13:08;30.65;;;11.85;;
83306;SDS011;73223;48.584;13.460;2024-01-15T02:15:34;28.33;;;11.98;;
83306;SDS011;73223;48.584;13.460;2024-01-15T02:20:26;33.45;;;11.80;;
83306;SDS011;73223;48.584;13.460;2024-01-15T02:22:51;23.25;;;9.15;;
83306;SDS011;73223;48.584;13.460;2024-01-15T02:25:16;28.05;;;10.57;;
83306;SDS011;73223;48.584;13.460;2024-01-15T02:27:42;25.55;;;10.27;;
83306;SDS011;73223;48.584;13.460;2024-01-15T02:30:09;28.92;;;11.90;;
83306;SDS011;73223;48.584;13.460;2024-01-15T02:32:36;21.92;;;9.48;;
83306;SDS011;73223;48.584;13.460;2024-01-15T02:35:02;22.60;;;8.38;;
83306;SDS011;73223;48.584;13.460;2024-01-15T02:37:27;25.20;;;10.70;;
83306;SDS011;73223;48.584;13.460;2024-01-15T02:39:52;30.70;;;9.93;;
83306;SDS011;73223;48.584;13.460;2024-01-15T02:42:17;21.57;;;9.43;;
83306;SDS011;73223;48.584;13.460;2024-01-15T02:44:43;27.05;;;11.05;;
83306;SDS011;73223;48.584;13.460;2024-01-15T02:47:08;28.67;;;10.17;;
83306;SDS011;73223;48.584;13.460;2024-01-15T02:49:33;23.70;;;10.00;;
83306;SDS011;73223;48.584;13.460;2024-01-15T02:51:59;25.03;;;10.43;;
83306;SDS011;73223;48.584;13.460;2024-01-15T02:54:24;26.77;;;10.52;;
83306;SDS011;73223;48.584;13.460;2024-01-15T02:56:49;26.70;;;9.83;;
83306;SDS011;73223;48.584;13.460;2024-01-15T02:59:14;28.63;;;11.50;;
83306;SDS011;73223;48.584;13.460;2024-01-15T03:01:40;29.23;;;10.07;;
83306;SDS011;73223;48.584;13.460;2024-01-15T03:04:05;27.53;;;10.47;;
83306;SDS011;73223;48.584;13.460;2024-01-15T03:06:30;24.97;;;11.00;;
83306;SDS011;73223;48.584;13.460;2024-01-15T03:08:56;27.23;;;10.00;;
83306;SDS011;73223;48.584;13.460;2024-01-15T03:11:21;26.67;;;10.57;;
83306;SDS011;73223;48.584;13.460;2024-01-15T03:13:46;24.77;;;9.98;;
83306;SDS011;73223;48.584;13.460;2024-01-15T03:16:11;27.13;;;9.90;;
83306;SDS011;73223;48.584;13.460;2024-01-15T03:18:37;20.15;;;8.02;;
83306;SDS011;73223;48.584;13.460;2024-01-15T03:21:02;26.27;;;8.90;;
83306;SDS011;73223;48.584;13.460;2024-01-15T03:23:27;23.60;;;9.60;;
83306;SDS011;73223;48.584;13.460;2024-01-15T03:25:53;20.42;;;8.27;;
83306;SDS011;73223;48.584;13.460;2024-01-15T03:28:18;23.77;;;8.60;;
83306;SDS011;73223;48.584;13.460;2024-01-15T03:30:43;22.90;;;8.07;;
83306;SDS011;73223;48.584;13.460;2024-01-15T03:33:08;19.37;;;8.13;;
83306;SDS011;73223;48.584;13.460;2024-01-15T03:35:34;25.73;;;9.10;;
83306;SDS011;73223;48.584;13.460;2024-01-15T03:37:59;25.98;;;8.50;;
83306;SDS011;73223;48.584;13.460;2024-01-15T03:40:24;22.35;;;8.20;;
83306;SDS011;73223;48.584;13.460;2024-01-15T03:42:50;21.02;;;7.90;;
83306;SDS011;73223;48.584;13.460;2024-01-15T03:45:16;22.88;;;8.60;;
83306;SDS011;73223;48.584;13.460;2024-01-15T03:47:41;22.45;;;8.25;;
83306;SDS011;73223;48.584;13.460;2024-01-15T03:50:06;25.93;;;9.83;;
83306;SDS011;73223;48.584;13.460;2024-01-15T03:52:32;25.92;;;8.30;;
83306;SDS011;73223;48.584;13.460;2024-01-15T03:54:57;29.60;;;10.37;;
83306;SDS011;73223;48.584;13.460;2024-01-15T03:57:22;25.30;;;9.05;;
83306;SDS011;73223;48.584;13.460;2024-01-15T03:59:47;22.73;;;10.93;;
83306;SDS011;73223;48.584;13.460;2024-01-15T04:02:13;24.58;;;8.80;;
83306;SDS011;73223;48.584;13.460;2024-01-15T04:04:43;26.23;;;9.65;;
83306;SDS011;73223;48.584;13.460;2024-01-15T04:07:11;25.80;;;9.25;;
83306;SDS011;73223;48.584;13.460;2024-01-15T04:09:37;25.88;;;10.32;;
83306;SDS011;73223;48.584;13.460;2024-01-15T04:12:02;26.27;;;8.57;;
83306;SDS011;73223;48.584;13.460;2024-01-15T04:14:27;25.00;;;10.85;;
83306;SDS011;73223;48.584;13.460;2024-01-15T04:16:53;24.10;;;9.00;;
83306;SDS011;73223;48.584;13.460;2024-01-15T04:19:19;30.25;;;11.10;;
83306;SDS011;73223;48.584;13.460;2024-01-15T04:21:44;27.30;;;10.20;;
83306;SDS011;73223;48.584;13.460;2024-01-15T04:24:09;28.80;;;12.07;;
83306;SDS011;73223;48.584;13.460;2024-01-15T04:26:34;23.17;;;9.60;;
83306;SDS011;73223;48.584;13.460;2024-01-15T04:29:00;32.37;;;9.90;;
83306;SDS011;73223;48.584;13.460;2024-01-15T04:31:25;24.33;;;9.87;;
83306;SDS011;73223;48.584;13.460;2024-01-15T04:33:52;23.98;;;9.82;;
83306;SDS011;73223;48.584;13.460;2024-01-15T04:36:17;32.33;;;9.57;;
83306;SDS011;73223;48.584;13.460;2024-01-15T04:38:42;28.15;;;10.07;;
83306;SDS011;73223;48.584;13.460;2024-01-15T04:41:11;26.30;;;7.22;;
83306;SDS011;73223;48.584;13.460;2024-01-15T04:43:37;22.17;;;9.55;;
83306;SDS011;73223;48.584;13.460;2024-01-15T04:46:03;24.43;;;9.33;;
83306;SDS011;73223;48.584;13.460;2024-01-15T04:48:30;26.77;;;9.02;;
83306;SDS011;73223;48.584;13.460;2024-01-15T04:50:56;23.10;;;8.77;;
83306;SDS011;73223;48.584;13.460;2024-01-15T04:53:21;21.60;;;8.13;;
83306;SDS011;73223;48.584;13.460;2024-01-15T04:55:46;25.53;;;8.23;;
83306;SDS011;73223;48.584;13.460;2024-01-15T04:58:11;25.23;;;7.27;;
83306;SDS011;73223;48.584;13.460;2024-01-15T05:00:37;21.90;;;8.53;;
83306;SDS011;73223;48.584;13.460;2024-01-15T05:03:02;20.85;;;7.80;;
83306;SDS011;73223;48.584;13.460;2024-01-15T05:05:28;30.02;;;10.68;;
83306;SDS011;73223;48.584;13.460;2024-01-15T05:07:53;19.27;;;6.63;;
83306;SDS011;73223;48.584;13.460;2024-01-15T05:10:18;24.60;;;7.97;;
83306;SDS011;73223;48.584;13.460;2024-01-15T05:12:43;29.52;;;9.48;;
83306;SDS011;73223;48.584;13.460;2024-01-15T05:15:09;21.93;;;8.23;;
83306;SDS011;73223;48.584;13.460;2024-01-15T05:17:34;24.40;;;10.20;;
83306;SDS011;73223;48.584;13.460;2024-01-15T05:19:59;24.23;;;7.55;;
83306;SDS011;73223;48.584;13.460;2024-01-15T05:22:25;25.52;;;9.90;;
83306;SDS011;73223;48.584;13.460;2024-01-15T05:24:50;22.50;;;10.17;;
83306;SDS011;73223;48.584;13.460;2024-01-15T05:27:15;23.77;;;8.50;;
83306;SDS011;73223;48.584;13.460;2024-01-15T05:29:41;27.90;;;8.25;;
83306;SDS011;73223;48.584;13.460;2024-01-15T05:32:06;17.52;;;6.47;;
83306;SDS011;73223;48.584;13.460;2024-01-15T05:34:31;26.43;;;9.83;;
83306;SDS011;73223;48.584;13.460;2024-01-15T05:36:56;25.00;;;10.10;;
83306;SDS011;73223;48.584;13.460;2024-01-15T05:39:22;22.97;;;7.73;;
83306;SDS011;73223;48.584;13.460;2024-01-15T05:41:47;24.70;;;9.37;;
83306;SDS011;73223;48.584;13.460;2024-01-15T05:44:12;23.73;;;9.80;;
83306;SDS011;73223;48.584;13.460;2024-01-15T05:46:37;21.40;;;9.23;;
83306;SDS011;73223;48.584;13.460;2024-01-15T05:49:03;32.85;;;9.05;;
83306;SDS011;73223;48.584;13.460;2024-01-15T05:51:28;31.05;;;9.20;;
83306;SDS011;73223;48.584;13.460;2024-01-15T05:53:54;20.60;;;8.53;;
83306;SDS011;73223;48.584;13.460;2024-01-15T05:56:19;28.15;;;8.95;;
83306;SDS011;73223;48.584;13.460;2024-01-15T05:58:44;22.85;;;7.85;;
83306;SDS011;73223;48.584;13.460;2024-01-15T06:01:10;21.87;;;8.13;;
83306;SDS011;73223;48.584;13.460;2024-01-15T06:03:35;29.38;;;9.13;;
83306;SDS011;73223;48.584;13.460;2024-01-15T06:06:00;27.27;;;8.60;;
83306;SDS011;73223;48.584;13.460;2024-01-15T06:08:25;23.17;;;9.47;;
83306;SDS011;73223;48.584;13.460;2024-01-15T06:10:52;29.10;;;10.25;;
83306;SDS011;73223;48.584;13.460;2024-01-15T06:13:18;21.10;;;7.90;;
83306;SDS011;73223;48.584;13.460;2024-01-15T06:15:43;22.50;;;8.40;;
83306;SDS011;73223;48.584;13.460;2024-01-15T06:18:08;24.77;;;9.13;;
83306;SDS011;73223;48.584;13.460;2024-01-15T06:20:33;19.52;;;7.75;;
83306;SDS011;73223;48.584;13.460;2024-01-15T06:22:59;17.43;;;5.87;;
83306;SDS011;73223;48.584;13.460;2024-01-15T06:25:24;18.90;;;7.07;;
83306;SDS011;73223;48.584;13.460;2024-01-15T06:27:49;25.80;;;8.43;;
83306;SDS011;73223;48.584;13.460;2024-01-15T06:30:14;22.00;;;8.20;;
83306;SDS011;73223;48.584;13.460;2024-01-15T06:32:40;19.10;;;6.55;;
83306;SDS011;73223;48.584;13.460;2024-01-15T06:35:05;25.02;;;8.60;;
83306;SDS011;73223;48.584;13.460;2024-01-15T06:37:31;19.35;;;6.72;;
83306;SDS011;73223;48.584;13.460;2024-01-15T06:39:57;20.35;;;7.10;;
83306;SDS011;73223;48.584;13.460;2024-01-15T06:42:23;21.73;;;8.15;;
83306;SDS011;73223;48.584;13.460;2024-01-15T06:44:48;23.50;;;7.75;;
83306;SDS011;73223;48.584;13.460;2024-01-15T06:47:13;22.05;;;7.72;;
83306;SDS011;73223;48.584;13.460;2024-01-15T06:49:39;17.40;;;6.45;;
83306;SDS011;73223;48.584;13.460;2024-01-15T06:52:05;23.33;;;8.45;;
83306;SDS011;73223;48.584;13.460;2024-01-15T06:54:31;23.90;;;8.88;;
83306;SDS011;73223;48.584;13.460;2024-01-15T06:56:56;23.45;;;7.85;;
83306;SDS011;73223;48.584;13.460;2024-01-15T06:59:21;23.13;;;8.23;;
83306;SDS011;73223;48.584;13.460;2024-01-15T07:01:47;26.85;;;10.15;;
83306;SDS011;73223;48.584;13.460;2024-01-15T07:04:12;21.07;;;8.03;;
83306;SDS011;73223;48.584;13.460;2024-01-15T07:06:38;25.10;;;7.85;;
83306;SDS011;73223;48.584;13.460;2024-01-15T07:09:03;22.52;;;8.88;;
83306;SDS011;73223;48.584;13.460;2024-01-15T07:11:29;20.85;;;9.65;;
83306;SDS011;73223;48.584;13.460;2024-01-15T07:13:54;21.07;;;10.10;;
83306;SDS011;73223;48.584;13.460;2024-01-15T07:16:19;19.35;;;8.20;;
83306;SDS011;73223;48.584;13.460;2024-01-15T07:18:45;22.02;;;8.98;;
83306;SDS011;73223;48.584;13.460;2024-01-15T07:21:10;21.03;;;8.37;;
83306;SDS011;73223;48.584;13.460;2024-01-15T07:23:35;21.40;;;8.77;;
83306;SDS011;73223;48.584;13.460;2024-01-15T07:26:00;18.03;;;8.00;;
83306;SDS011;73223;48.584;13.460;2024-01-15T07:28:28;22.00;;;8.60;;
83306;SDS011;73223;48.584;13.460;2024-01-15T07:30:53;20.40;;;8.60;;
83306;SDS011;73223;48.584;13.460;2024-01-15T07:33:19;20.92;;;7.38;;
83306;SDS011;73223;48.584;13.460;2024-01-15T07:35:44;15.17;;;6.17;;
83306;SDS011;73223;48.584;13.460;2024-01-15T07:38:09;19.23;;;8.93;;
83306;SDS011;73223;48.584;13.460;2024-01-15T07:40:36;17.15;;;7.32;;
83306;SDS011;73223;48.584;13.460;2024-01-15T07:43:02;19.48;;;8.68;;
83306;SDS011;73223;48.584;13.460;2024-01-15T07:45:27;14.75;;;7.72;;
83306;SDS011;73223;48.584;13.460;2024-01-15T07:47:53;22.50;;;8.13;;
83306;SDS011;73223;48.584;13.460;2024-01-15T07:50:18;22.40;;;8.13;;
83306;SDS011;73223;48.584;13.460;2024-01-15T07:52:43;18.17;;;7.22;;
83306;SDS011;73223;48.584;13.460;2024-01-15T07:55:09;20.20;;;7.88;;
83306;SDS011;73223;48.584;13.460;2024-01-15T07:57:34;16.85;;;6.40;;
83306;SDS011;73223;48.584;13.460;2024-01-15T08:00:00;19.10;;;7.13;;
83306;SDS011;73223;48.584;13.460;2024-01-15T08:02:26;20.08;;;7.78;;
83306;SDS011;73223;48.584;13.460;2024-01-15T08:04:52;20.45;;;6.47;;
83306;SDS011;73223;48.584;13.460;2024-01-15T08:07:17;17.67;;;7.20;;
83306;SDS011;73223;48.584;13.460;2024-01-15T08:09:42;16.98;;;6.55;;
83306;SDS011;73223;48.584;13.460;2024-01-15T08:12:08;17.83;;;7.10;;
83306;SDS011;73223;48.584;13.460;2024-01-15T08:14:35;15.70;;;5.65;;
83306;SDS011;73223;48.584;13.460;2024-01-15T08:17:00;13.65;;;6.15;;
83306;SDS011;73223;48.584;13.460;2024-01-15T08:19:26;20.00;;;7.22;;
83306;SDS011;73223;48.584;13.460;2024-01-15T08:21:51;19.08;;;7.63;;
83306;SDS011;73223;48.584;13.460;2024-01-15T08:24:17;16.90;;;7.40;;
83306;SDS011;73223;48.584;13.460;2024-01-15T08:26:42;17.15;;;7.57;;
83306;SDS011;73223;48.584;13.460;2024-01-15T08:29:08;17.57;;;6.47;;
83306;SDS011;73223;48.584;13.460;2024-01-15T08:31:33;15.82;;;6.18;;
83306;SDS011;73223;48.584;13.460;2024-01-15T08:33:58;14.18;;;6.57;;
83306;SDS011;73223;48.584;13.460;2024-01-15T08:36:24;16.10;;;6.22;;
83306;SDS011;73223;48.584;13.460;2024-01-15T08:38:50;20.27;;;6.65;;
83306;SDS011;73223;48.584;13.460;2024-01-15T08:41:15;15.80;;;5.75;;
83306;SDS011;73223;48.584;13.460;2024-01-15T08:43:40;14.50;;;6.43;;
83306;SDS011;73223;48.584;13.460;2024-01-15T08:46:05;16.73;;;5.53;;
83306;SDS011;73223;48.584;13.460;2024-01-15T08:48:31;14.30;;;5.97;;
83306;SDS011;73223;48.584;13.460;2024-01-15T08:50:56;19.08;;;6.07;;
83306;SDS011;73223;48.584;13.460;2024-01-15T08:53:22;16.70;;;6.68;;
83306;SDS011;73223;48.584;13.460;2024-01-15T08:55:47;16.52;;;5.55;;
83306;SDS011;73223;48.584;13.460;2024-01-15T08:58:13;13.15;;;6.28;;
83306;SDS011;73223;48.584;13.460;2024-01-15T09:00:38;15.23;;;6.15;;
83306;SDS011;73223;48.584;13.460;2024-01-15T09:03:03;15.40;;;6.38;;
83306;SDS011;73223;48.584;13.460;2024-01-15T09:05:29;16.73;;;6.03;;
83306;SDS011;73223;48.584;13.460;2024-01-15T09:07:54;17.93;;;8.07;;
83306;SDS011;73223;48.584;13.460;2024-01-15T09:10:20;14.65;;;6.40;;
83306;SDS011;73223;48.584;13.460;2024-01-15T09:12:45;16.27;;;5.55;;
83306;SDS011;73223;48.584;13.460;2024-01-15T09:15:11;16.75;;;6.72;;
83306;SDS011;73223;48.584;13.460;2024-01-15T09:17:37;14.07;;;5.60;;
83306;SDS011;73223;48.584;13.460;2024-01-15T09:20:02;12.13;;;3.80;;
83306;SDS011;73223;48.584;13.460;2024-01-15T09:22:29;14.95;;;5.18;;
83306;SDS011;73223;48.584;13.460;2024-01-15T09:24:55;13.45;;;4.72;;
83306;SDS011;73223;48.584;13.460;2024-01-15T09:27:20;11.70;;;4.90;;
83306;SDS011;73223;48.584;13.460;2024-01-15T09:29:45;13.55;;;5.00;;
83306;SDS011;73223;48.584;13.460;2024-01-15T09:32:11;16.52;;;5.05;;
83306;SDS011;73223;48.584;13.460;2024-01-15T09:34:37;11.70;;;4.78;;
83306;SDS011;73223;48.584;13.460;2024-01-15T09:37:03;11.93;;;5.03;;
83306;SDS011;73223;48.584;13.460;2024-01-15T09:39:29;17.38;;;5.28;;
83306;SDS011;73223;48.584;13.460;2024-01-15T09:41:54;17.05;;;4.63;;
83306;SDS011;73223;48.584;13.460;2024-01-15T09:44:20;13.10;;;4.93;;
83306;SDS011;73223;48.584;13.460;2024-01-15T09:46:46;14.70;;;3.95;;
83306;SDS011;73223;48.584;13.460;2024-01-15T09:49:14;12.45;;;3.47;;
83306;SDS011;73223;48.584;13.460;2024-01-15T09:51:40;13.73;;;4.40;;
83306;SDS011;73223;48.584;13.460;2024-01-15T09:54:07;9.73;;;4.10;;
83306;SDS011;73223;48.584;13.460;2024-01-15T09:56:33;11.10;;;4.63;;
83306;SDS011;73223;48.584;13.460;2024-01-15T09:58:59;11.98;;;4.35;;
83306;SDS011;73223;48.584;13.460;2024-01-15T10:01:25;10.65;;;4.55;;
83306;SDS011;73223;48.584;13.460;2024-01-15T10:03:51;8.48;;;3.72;;
83306;SDS011;73223;48.584;13.460;2024-01-15T10:06:18;12.88;;;4.15;;
83306;SDS011;73223;48.584;13.460;2024-01-15T10:08:47;11.63;;;4.25;;
83306;SDS011;73223;48.584;13.460;2024-01-15T10:11:13;9.90;;;4.28;;
83306;SDS011;73223;48.584;13.460;2024-01-15T10:13:39;11.02;;;3.75;;
83306;SDS011;73223;48.584;13.460;2024-01-15T10:16:04;9.40;;;3.30;;
83306;SDS011;73223;48.584;13.460;2024-01-15T10:18:29;9.23;;;3.22;;
83306;SDS011;73223;48.584;13.460;2024-01-15T10:20:55;10.13;;;3.22;;
83306;SDS011;73223;48.584;13.460;2024-01-15T10:23:22;13.40;;;3.67;;
83306;SDS011;73223;48.584;13.460;2024-01-15T10:25:48;10.07;;;3.70;;
83306;SDS011;73223;48.584;13.460;2024-01-15T10:28:13;8.80;;;3.45;;
83306;SDS011;73223;48.584;13.460;2024-01-15T10:30:39;8.20;;;2.63;;
83306;SDS011;73223;48.584;13.460;2024-01-15T10:33:04;10.00;;;3.57;;
83306;SDS011;73223;48.584;13.460;2024-01-15T10:35:30;10.02;;;3.05;;
83306;SDS011;73223;48.584;13.460;2024-01-15T10:37:56;10.30;;;3.22;;
83306;SDS011;73223;48.584;13.460;2024-01-15T10:40:22;13.13;;;3.35;;
83306;SDS011;73223;48.584;13.460;2024-01-15T10:42:48;9.75;;;3.05;;
83306;SDS011;73223;48.584;13.460;2024-01-15T10:45:13;9.90;;;3.10;;
83306;SDS011;73223;48.584;13.460;2024-01-15T10:47:39;7.20;;;2.70;;
83306;SDS011;73223;48.584;13.460;2024-01-15T10:50:06;9.95;;;3.30;;
83306;SDS011;73223;48.584;13.460;2024-01-15T10:52:33;8.65;;;3.20;;
83306;SDS011;73223;48.584;13.460;2024-01-15T10:55:00;9.30;;;3.67;;
83306;SDS011;73223;48.584;13.460;2024-01-15T10:57:26;8.77;;;2.75;;
83306;SDS011;73223;48.584;13.460;2024-01-15T10:59:52;12.70;;;3.10;;
83306;SDS011;73223;48.584;13.460;2024-01-15T11:02:17;9.70;;;3.17;;
83306;SDS011;73223;48.584;13.460;2024-01-15T11:04:43;7.95;;;3.47;;
83306;SDS011;73223;48.584;13.460;2024-01-15T11:07:08;10.20;;;2.90;;
83306;SDS011;73223;48.584;13.460;2024-01-15T11:09:36;10.50;;;3.03;;
83306;SDS011;73223;48.584;13.460;2024-01-15T11:12:11;7.00;;;2.63;;
83306;SDS011;73223;48.584;13.460;2024-01-15T11:14:44;8.15;;;2.78;;
83306;SDS011;73223;48.584;13.460;2024-01-15T11:17:14;8.32;;;3.13;;
83306;SDS011;73223;48.584;13.460;2024-01-15T11:19:44;7.45;;;2.58;;
83306;SDS011;73223;48.584;13.460;2024-01-15T11:22:46;7.70;;;2.95;;
83306;SDS011;73223;48.584;13.460;2024-01-15T11:24:56;7.88;;;2.78;;
83306;SDS011;73223;48.584;13.460;2024-01-15T11:27:42;9.38;;;2.83;;
83306;SDS011;73223;48.584;13.460;2024-01-15T11:30:17;9.48;;;3.00;;
83306;SDS011;73223;48.584;13.460;2024-01-15T11:32:46;8.63;;;3.13;;
83306;SDS011;73223;48.584;13.460;2024-01-15T11:35:12;7.97;;;2.70;;
83306;SDS011;73223;48.584;13.460;2024-01-15T11:43:01;10.95;;;2.85;;
83306;SDS011;73223;48.584;13.460;2024-01-15T11:45:28;8.63;;;3.25;;
83306;SDS011;73223;48.584;13.460;2024-01-15T11:50:46;7.75;;;2.38;;
83306;SDS011;73223;48.584;13.460;2024-01-15T11:53:33;9.35;;;2.55;;
83306;SDS011;73223;48.584;13.460;2024-01-15T11:56:06;9.45;;;3.13;;
83306;SDS011;73223;48.584;13.460;2024-01-15T11:58:40;10.38;;;3.58;;
83306;SDS011;73223;48.584;13.460;2024-01-15T12:01:06;9.10;;;2.72;;
83306;SDS011;73223;48.584;13.460;2024-01-15T12:03:32;11.50;;;3.80;;
83306;SDS011;73223;48.584;13.460;2024-01-15T12:05:58;7.03;;;2.70;;
83306;SDS011;73223;48.584;13.460;2024-01-15T12:08:25;6.22;;;2.40;;
83306;SDS011;73223;48.584;13.460;2024-01-15T12:13:17;8.23;;;2.70;;
83306;SDS011;73223;48.584;13.460;2024-01-15T12:15:43;7.53;;;2.95;;
83306;SDS011;73223;48.584;13.460;2024-01-15T12:18:12;8.60;;;2.65;;
83306;SDS011;73223;48.584;13.460;2024-01-15T12:20:40;8.80;;;3.22;;
83306;SDS011;73223;48.584;13.460;2024-01-15T12:23:05;8.38;;;2.53;;
83306;SDS011;73223;48.584;13.460;2024-01-15T12:25:31;5.95;;;2.28;;
83306;SDS011;73223;48.584;13.460;2024-01-15T12:27:58;7.18;;;2.83;;
83306;SDS011;73223;48.584;13.460;2024-01-15T12:30:28;7.50;;;2.40;;
83306;SDS011;73223;48.584;13.460;2024-01-15T12:32:57;6.65;;;1.92;;
83306;SDS011;73223;48.584;13.460;2024-01-15T12:35:24;7.25;;;2.50;;
83306;SDS011;73223;48.584;13.460;2024-01-15T12:37:51;7.00;;;2.35;;
83306;SDS011;73223;48.584;13.460;2024-01-15T12:40:19;8.18;;;3.22;;
83306;SDS011;73223;48.584;13.460;2024-01-15T12:42:47;7.78;;;2.38;;
83306;SDS011;73223;48.584;13.460;2024-01-15T12:45:12;7.00;;;2.42;;
83306;SDS011;73223;48.584;13.460;2024-01-15T12:47:38;9.68;;;2.33;;
83306;SDS011;73223;48.584;13.460;2024-01-15T12:50:11;7.85;;;2.08;;
83306;SDS011;73223;48.584;13.460;2024-01-15T12:52:37;7.32;;;2.75;;
83306;SDS011;73223;48.584;13.460;2024-01-15T12:55:06;8.43;;;2.95;;
83306;SDS011;73223;48.584;13.460;2024-01-15T12:57:32;6.97;;;3.03;;
83306;SDS011;73223;48.584;13.460;2024-01-15T12:59:59;9.13;;;2.95;;
83306;SDS011;73223;48.584;13.460;2024-01-15T13:02:24;8.07;;;2.80;;
83306;SDS011;73223;48.584;13.460;2024-01-15T13:04:50;9.90;;;2.70;;
83306;SDS011;73223;48.584;13.460;2024-01-15T13:07:15;9.10;;;3.40;;
83306;SDS011;73223;48.584;13.460;2024-01-15T13:09:41;9.07;;;3.33;;
83306;SDS011;73223;48.584;13.460;2024-01-15T13:12:06;11.57;;;3.95;;
83306;SDS011;73223;48.584;13.460;2024-01-15T13:14:32;9.73;;;3.60;;
83306;SDS011;73223;48.584;13.460;2024-01-15T13:17:00;10.02;;;3.20;;
83306;SDS011;73223;48.584;13.460;2024-01-15T13:19:25;9.65;;;3.17;;
83306;SDS011;73223;48.584;13.460;2024-01-15T13:21:51;7.93;;;3.17;;
83306;SDS011;73223;48.584;13.460;2024-01-15T13:24:17;10.27;;;3.13;;
83306;SDS011;73223;48.584;13.460;2024-01-15T13:26:43;9.20;;;3.22;;
83306;SDS011;73223;48.584;13.460;2024-01-15T13:29:08;9.40;;;2.92;;
83306;SDS011;73223;48.584;13.460;2024-01-15T13:31:34;10.50;;;4.15;;
83306;SDS011;73223;48.584;13.460;2024-01-15T13:33:59;12.93;;;3.33;;
83306;SDS011;73223;48.584;13.460;2024-01-15T13:36:25;7.40;;;2.67;;
83306;SDS011;73223;48.584;13.460;2024-01-15T13:38:51;8.40;;;2.88;;
83306;SDS011;73223;48.584;13.460;2024-01-15T13:41:18;9.13;;;2.60;;
83306;SDS011;73223;48.584;13.460;2024-01-15T13:43:48;7.85;;;2.30;;
83306;SDS011;73223;48.584;13.460;2024-01-15T13:46:14;7.72;;;2.30;;
83306;SDS011;73223;48.584;13.460;2024-01-15T13:48:40;7.77;;;2.67;;
83306;SDS011;73223;48.584;13.460;2024-01-15T13:51:05;9.20;;;2.72;;
83306;SDS011;73223;48.584;13.460;2024-01-15T13:53:31;5.30;;;1.98;;
83306;SDS011;73223;48.584;13.460;2024-01-15T13:55:56;8.13;;;3.40;;
83306;SDS011;73223;48.584;13.460;2024-01-15T13:58:21;7.53;;;2.87;;
83306;SDS011;73223;48.584;13.460;2024-01-15T14:00:47;7.03;;;2.53;;
83306;SDS011;73223;48.584;13.460;2024-01-15T14:03:13;7.07;;;2.35;;
83306;SDS011;73223;48.584;13.460;2024-01-15T14:05:38;7.77;;;2.67;;
83306;SDS011;73223;48.584;13.460;2024-01-15T14:08:03;8.07;;;2.77;;
83306;SDS011;73223;48.584;13.460;2024-01-15T14:10:29;7.43;;;2.47;;
83306;SDS011;73223;48.584;13.460;2024-01-15T14:12:54;7.47;;;2.17;;
83306;SDS011;73223;48.584;13.460;2024-01-15T14:15:20;7.20;;;2.20;;
83306;SDS011;73223;48.584;13.460;2024-01-15T14:17:46;6.47;;;2.00;;
83306;SDS011;73223;48.584;13.460;2024-01-15T14:20:11;7.97;;;2.83;;
83306;SDS011;73223;48.584;13.460;2024-01-15T14:22:37;6.55;;;2.17;;
83306;SDS011;73223;48.584;13.460;2024-01-15T14:25:03;8.05;;;2.97;;
83306;SDS011;73223;48.584;13.460;2024-01-15T14:27:29;7.57;;;2.17;;